createdAt,value
2023-04-20T00:00:09.734Z,99257.00
2023-04-20T00:02:37.620Z,99247.56
2023-04-20T00:05:07.637Z,99242.50
2023-04-20T00:07:34.460Z,99233.06
2023-04-20T00:10:01.861Z,99239.78
2023-04-20T00:12:28.715Z,99214.50
2023-04-20T00:14:55.978Z,99222.97
2023-04-20T00:17:22.777Z,99222.44
2023-04-20T00:19:50.815Z,99214.72
2023-04-20T00:22:17.717Z,99208.19
2023-04-20T00:24:44.537Z,99201.50
2023-04-20T00:27:12.181Z,99204.56
2023-04-20T00:29:38.994Z,99202.00
2023-04-20T00:32:06.713Z,99196.44
2023-04-20T00:34:33.441Z,99190.75
2023-04-20T00:37:00.267Z,99194.13
2023-04-20T00:39:27.212Z,99194.69
2023-04-20T00:41:53.934Z,99198.06
2023-04-20T00:44:20.911Z,99194.94
2023-04-20T00:46:47.770Z,99185.81
2023-04-20T00:49:14.530Z,99189.06
2023-04-20T00:51:41.449Z,99182.53
2023-04-20T00:54:08.575Z,99174.84
2023-04-20T00:56:35.691Z,99173.00
2023-04-20T00:59:02.969Z,99175.59
2023-04-20T01:01:29.974Z,99176.88
2023-04-20T01:03:57.072Z,99175.88
2023-04-20T01:06:23.908Z,99164.91
2023-04-20T01:08:52.135Z,99166.41
2023-04-20T01:11:19.222Z,99156.13
2023-04-20T01:13:50.354Z,99156.88
2023-04-20T01:16:17.571Z,99153.22
2023-04-20T01:18:46.932Z,99154.63
2023-04-20T01:21:15.521Z,99152.69
2023-04-20T01:23:42.428Z,99150.53
2023-04-20T01:26:10.692Z,99152.63
2023-04-20T01:28:37.582Z,99151.97
2023-04-20T01:31:05.090Z,99144.31
2023-04-20T01:33:31.907Z,99148.78
2023-04-20T01:35:58.805Z,99143.53
2023-04-20T01:38:27.015Z,99140.38
2023-04-20T01:40:55.097Z,99146.84
2023-04-20T01:43:22.723Z,99142.03
2023-04-20T01:45:49.375Z,99133.63
2023-04-20T01:48:16.369Z,99138.31
2023-04-20T01:50:43.134Z,99127.47
2023-04-20T01:53:10.006Z,99118.63
2023-04-20T01:55:37.131Z,99125.53
2023-04-20T01:58:04.385Z,99111.03
2023-04-20T02:00:31.286Z,99116.44
2023-04-20T02:02:58.653Z,99110.59
2023-04-20T02:05:28.560Z,99113.00
2023-04-20T02:07:55.347Z,99109.03
2023-04-20T02:10:22.039Z,99108.09
2023-04-20T02:12:49.716Z,99109.34
2023-04-20T02:15:16.895Z,99112.38
2023-04-20T02:17:44.075Z,99108.84
2023-04-20T02:20:11.917Z,99105.84
2023-04-20T02:22:38.769Z,99103.25
2023-04-20T02:25:06.382Z,99102.03
2023-04-20T02:27:33.435Z,99107.41
2023-04-20T02:30:00.798Z,99108.56
2023-04-20T02:32:27.816Z,99108.63
2023-04-20T02:34:54.519Z,99103.22
2023-04-20T02:37:21.506Z,99107.16
2023-04-20T02:39:48.457Z,99100.94
2023-04-20T02:42:15.201Z,99107.84
2023-04-20T02:44:41.880Z,99105.69
2023-04-20T02:47:08.622Z,99099.53
2023-04-20T02:49:36.096Z,99105.34
2023-04-20T02:52:02.919Z,99104.13
2023-04-20T02:54:29.769Z,99104.81
2023-04-20T02:56:58.086Z,99104.50
2023-04-20T02:59:25.175Z,99091.94
2023-04-20T03:01:52.076Z,99092.88
2023-04-20T03:04:19.659Z,99089.16
2023-04-20T03:06:46.489Z,99093.13
2023-04-20T03:09:13.471Z,99085.59
2023-04-20T03:11:40.180Z,99091.66
2023-04-20T03:14:07.132Z,99089.06
2023-04-20T03:16:34.380Z,99091.03
2023-04-20T03:19:01.183Z,99090.28
2023-04-20T03:21:27.883Z,99090.00
2023-04-20T03:23:54.762Z,99088.31
2023-04-20T03:26:21.477Z,99092.28
2023-04-20T03:28:50.416Z,99091.75
2023-04-20T03:31:17.454Z,99092.34
2023-04-20T03:33:44.169Z,99091.84
2023-04-20T03:36:13.835Z,99090.69
2023-04-20T03:38:40.686Z,99090.19
2023-04-20T03:41:08.417Z,99092.06
2023-04-20T03:43:35.398Z,99090.19
2023-04-20T03:46:02.416Z,99085.81
2023-04-20T03:48:29.223Z,99089.75
2023-04-20T03:50:55.949Z,99087.25
2023-04-20T03:53:23.482Z,99092.28
2023-04-20T03:55:50.154Z,99086.13
2023-04-20T03:58:17.968Z,99085.59
2023-04-20T04:00:44.623Z,99084.56
2023-04-20T04:03:11.462Z,99087.78
2023-04-20T04:05:38.772Z,99086.34
2023-04-20T04:08:06.070Z,99078.75
2023-04-20T04:10:32.838Z,99080.91
2023-04-20T04:13:00.208Z,99080.63
2023-04-20T04:15:26.914Z,99081.25
2023-04-20T04:17:54.408Z,99089.38
2023-04-20T04:20:21.393Z,99086.03
2023-04-20T04:22:48.087Z,99084.88
2023-04-20T04:25:15.474Z,99086.13
2023-04-20T04:27:42.406Z,99084.56
2023-04-20T04:30:11.715Z,99083.09
2023-04-20T04:32:38.450Z,99091.56
2023-04-20T04:35:06.122Z,99094.34
2023-04-20T04:37:32.861Z,99092.50
2023-04-20T04:39:59.598Z,99094.56
2023-04-20T04:42:27.875Z,99095.63
2023-04-20T04:44:56.365Z,99093.63
2023-04-20T04:47:23.966Z,99090.00
2023-04-20T04:49:50.835Z,99092.47
2023-04-20T04:52:18.214Z,99095.63
2023-04-20T04:54:45.257Z,99094.56
2023-04-20T04:57:12.551Z,99096.94
2023-04-20T04:59:39.399Z,99099.44
2023-04-20T05:02:06.409Z,99092.06
2023-04-20T05:04:33.260Z,99100.16
2023-04-20T05:07:00.212Z,99093.31
2023-04-20T05:09:33.463Z,99103.38
2023-04-20T05:12:01.208Z,99100.78
2023-04-20T05:14:27.872Z,99113.59
2023-04-20T05:16:54.866Z,99108.91
2023-04-20T05:19:21.586Z,99115.59
2023-04-20T05:21:49.531Z,99109.44
2023-04-20T05:24:18.183Z,99108.50
2023-04-20T05:26:45.430Z,99103.63
2023-04-20T05:29:12.505Z,99116.22
2023-04-20T05:31:39.213Z,99106.84
2023-04-20T05:34:06.214Z,99111.63
2023-04-20T05:36:33.993Z,99116.09
2023-04-20T05:39:01.136Z,99118.28
2023-04-20T05:41:28.798Z,99120.38
2023-04-20T05:43:55.809Z,99109.34
2023-04-20T05:46:23.455Z,99124.53
2023-04-20T05:48:50.239Z,99123.50
2023-04-20T05:51:17.026Z,99134.84
2023-04-20T05:53:43.834Z,99132.66
2023-04-20T05:56:11.130Z,99137.03
2023-04-20T05:58:37.973Z,99143.47
2023-04-20T06:01:05.218Z,99147.25
2023-04-20T06:03:32.568Z,99142.75
2023-04-20T06:05:59.793Z,99147.00
2023-04-20T06:08:26.954Z,99154.19
2023-04-20T06:10:56.204Z,99145.34
2023-04-20T06:13:23.267Z,99146.81
2023-04-20T06:15:50.479Z,99155.88
2023-04-20T06:18:17.882Z,99147.72
2023-04-20T06:20:44.840Z,99146.59
2023-04-20T06:23:12.122Z,99155.44
2023-04-20T06:25:39.252Z,99146.59
2023-04-20T06:28:07.065Z,99150.97
2023-04-20T06:30:34.924Z,99154.41
2023-04-20T06:33:02.489Z,99152.53
2023-04-20T06:35:29.888Z,99139.09
2023-04-20T06:37:57.995Z,99147.72
2023-04-20T06:40:28.994Z,99149.53
2023-04-20T06:42:55.705Z,99149.63
2023-04-20T06:45:22.733Z,99154.09
2023-04-20T06:47:49.541Z,99154.31
2023-04-20T06:50:16.814Z,99150.34
2023-04-20T06:52:43.628Z,99144.84
2023-04-20T06:55:10.932Z,99155.34
2023-04-20T06:57:40.206Z,99147.84
2023-04-20T07:00:08.945Z,99135.75
2023-04-20T07:02:51.383Z,99145.34
2023-04-20T07:05:18.807Z,99150.63
2023-04-20T07:07:45.718Z,99144.06
2023-04-20T07:10:14.152Z,99153.25
2023-04-20T07:12:43.750Z,99166.16
2023-04-20T07:15:11.752Z,99159.25
2023-04-20T07:17:39.258Z,99153.13
2023-04-20T07:20:08.899Z,99163.22
2023-04-20T07:22:36.686Z,99163.13
2023-04-20T07:25:08.517Z,99161.75
2023-04-20T07:27:37.800Z,99163.13
2023-04-20T07:30:06.960Z,99168.13
2023-04-20T07:32:36.571Z,99167.16
2023-04-20T07:35:04.182Z,99176.25
2023-04-20T07:37:32.883Z,99176.88
2023-04-20T07:39:59.982Z,99168.63
2023-04-20T07:42:26.998Z,99184.88
2023-04-20T07:44:54.765Z,99188.09
2023-04-20T07:47:21.594Z,99189.66
2023-04-20T07:49:48.890Z,99191.75
2023-04-20T07:52:17.306Z,99192.59
2023-04-20T07:54:45.468Z,99191.53
2023-04-20T07:57:12.648Z,99193.38
2023-04-20T07:59:40.884Z,99192.78
2023-04-20T08:02:08.876Z,99199.31
2023-04-20T08:04:39.243Z,99199.22
2023-04-20T08:07:06.296Z,99203.19
2023-04-20T08:09:33.161Z,99189.84
2023-04-20T08:12:00.791Z,99191.69
2023-04-20T08:14:27.751Z,99198.34
2023-04-20T08:16:54.533Z,99192.53
2023-04-20T08:19:21.408Z,99193.47
2023-04-20T08:21:48.251Z,99195.75
2023-04-20T08:24:15.006Z,99177.94
2023-04-20T08:26:44.233Z,99183.91
2023-04-20T08:29:11.154Z,99173.28
2023-04-20T08:31:38.259Z,99178.28
2023-04-20T08:34:05.136Z,99175.91
2023-04-20T08:36:32.378Z,99178.44
2023-04-20T08:39:18.960Z,99174.41
2023-04-20T08:41:45.756Z,99172.41
2023-04-20T08:44:12.505Z,99187.47
2023-04-20T08:46:41.739Z,99173.97
2023-04-20T08:49:12.301Z,99179.91
2023-04-20T08:51:42.721Z,99169.94
2023-04-20T08:54:11.020Z,99170.16
2023-04-20T08:56:45.411Z,99159.97
2023-04-20T08:59:14.735Z,99168.75
2023-04-20T09:01:42.777Z,99168.50
2023-04-20T09:04:29.390Z,99155.75
2023-04-20T09:06:56.848Z,99165.50
2023-04-20T09:09:25.740Z,99161.72
2023-04-20T09:12:07.533Z,99168.91
2023-04-20T09:14:48.765Z,99181.22
2023-04-20T09:17:18.222Z,99168.94
2023-04-20T09:19:46.252Z,99188.47
2023-04-20T09:22:13.151Z,99183.22
2023-04-20T09:24:41.417Z,99172.53
2023-04-20T09:27:20.104Z,99182.41
2023-04-20T09:30:01.540Z,99179.19
2023-04-20T09:32:33.208Z,99176.09
2023-04-20T09:35:00.212Z,99173.75
2023-04-20T09:37:27.049Z,99177.19
2023-04-20T09:39:56.617Z,99181.56
2023-04-20T09:42:25.220Z,99172.53
2023-04-20T09:44:53.051Z,99175.41
2023-04-20T09:47:19.908Z,99180.13
2023-04-20T09:49:49.735Z,99183.00
2023-04-20T09:52:18.707Z,99188.22
2023-04-20T09:54:45.749Z,99191.78
2023-04-20T09:57:14.341Z,99186.56
2023-04-20T09:59:47.027Z,99183.94
2023-04-20T10:02:14.257Z,99176.31
2023-04-20T10:04:57.745Z,99174.59
2023-04-20T10:07:26.709Z,99177.94
2023-04-20T10:10:08.007Z,99169.72
2023-04-20T10:12:37.405Z,99172.13
2023-04-20T10:15:04.711Z,99166.34
2023-04-20T10:17:32.714Z,99166.22
2023-04-20T10:19:59.864Z,99156.53
2023-04-20T10:22:33.042Z,99156.25
2023-04-20T10:25:02.210Z,99148.25
2023-04-20T10:27:29.208Z,99156.19
2023-04-20T10:29:55.927Z,99160.97
2023-04-20T10:32:27.767Z,99141.81
2023-04-20T10:35:21.420Z,99140.59
2023-04-20T10:37:52.327Z,99138.50
2023-04-20T10:40:27.407Z,99133.16
2023-04-20T10:42:54.253Z,99134.19
2023-04-20T10:45:22.383Z,99120.19
2023-04-20T10:47:49.329Z,99124.25
2023-04-20T10:50:19.175Z,99113.72
2023-04-20T10:52:46.208Z,99108.19
2023-04-20T10:55:20.882Z,99107.91
2023-04-20T10:57:48.553Z,99102.31
2023-04-20T11:00:20.707Z,99094.94
2023-04-20T11:02:52.361Z,99105.31
2023-04-20T11:05:20.497Z,99112.25
2023-04-20T11:07:59.036Z,99119.28
2023-04-20T11:10:41.389Z,99110.94
2023-04-20T11:13:19.687Z,99120.34
2023-04-20T11:15:46.664Z,99107.63
2023-04-20T11:18:13.558Z,99107.34
2023-04-20T11:20:59.146Z,99103.84
2023-04-20T11:23:27.881Z,99107.63
2023-04-20T11:25:57.118Z,99094.06
2023-04-20T11:28:24.493Z,99099.94
2023-04-20T11:30:51.547Z,99095.22
2023-04-20T11:33:29.296Z,99094.41
2023-04-20T11:35:57.718Z,99083.63
2023-04-20T11:38:33.563Z,99087.78
2023-04-20T11:41:04.952Z,99071.59
2023-04-20T11:43:38.425Z,99076.25
2023-04-20T11:46:17.175Z,99088.09
2023-04-20T11:48:44.671Z,99074.13
2023-04-20T11:51:11.872Z,99075.81
2023-04-20T11:53:38.898Z,99072.53
2023-04-20T11:56:06.658Z,99082.97
2023-04-20T11:58:33.784Z,99076.66
2023-04-20T12:01:00.578Z,99066.78
2023-04-20T12:03:27.790Z,99078.72
2023-04-20T12:05:55.115Z,99074.88
2023-04-20T12:08:22.302Z,99079.31
2023-04-20T12:10:49.986Z,99073.41
2023-04-20T12:13:16.981Z,99075.94
2023-04-20T12:15:43.945Z,99082.28
2023-04-20T12:18:11.326Z,99083.19
2023-04-20T12:20:38.267Z,99084.03
2023-04-20T12:23:05.209Z,99076.25
2023-04-20T12:25:32.878Z,99082.22
2023-04-20T12:27:59.864Z,99070.25
2023-04-20T12:30:26.927Z,99073.00
2023-04-20T12:32:54.001Z,99069.50
2023-04-20T12:35:21.275Z,99070.81
2023-04-20T12:37:48.178Z,99068.22
2023-04-20T12:40:15.210Z,99065.47
2023-04-20T12:42:42.095Z,99065.19
2023-04-20T12:45:09.159Z,99066.25
2023-04-20T12:47:36.091Z,99065.03
2023-04-20T12:50:03.581Z,99065.47
2023-04-20T12:52:30.657Z,99057.88
2023-04-20T12:54:57.377Z,99056.06
2023-04-20T12:57:24.451Z,99046.69
2023-04-20T12:59:51.575Z,99039.81
2023-04-20T13:02:18.732Z,99039.84
2023-04-20T13:04:46.431Z,99038.38
2023-04-20T13:07:13.377Z,99033.81
2023-04-20T13:09:40.157Z,99028.03
2023-04-20T13:12:07.570Z,99036.59
2023-04-20T13:14:34.599Z,99035.19
2023-04-20T13:17:02.484Z,99039.03
2023-04-20T13:19:30.439Z,99023.84
2023-04-20T13:21:57.687Z,99030.50
2023-04-20T13:24:24.982Z,99021.50
2023-04-20T13:26:56.971Z,99021.06
2023-04-20T13:29:25.446Z,99029.22
2023-04-20T13:31:52.595Z,99025.81
2023-04-20T13:34:19.684Z,99024.19
2023-04-20T13:36:46.654Z,99008.63
2023-04-20T13:39:14.393Z,99015.78
2023-04-20T13:41:41.156Z,99021.28
2023-04-20T13:44:09.929Z,99012.75
2023-04-20T13:46:37.010Z,99015.94
2023-04-20T13:49:03.865Z,99004.53
2023-04-20T13:51:31.372Z,98998.81
2023-04-20T13:53:58.226Z,99002.59
2023-04-20T13:56:25.173Z,99012.75
2023-04-20T13:58:52.020Z,99014.19
2023-04-20T14:01:18.857Z,99009.91
2023-04-20T14:03:45.881Z,99015.28
2023-04-20T14:06:13.252Z,99015.56
2023-04-20T14:08:40.186Z,99013.59
2023-04-20T14:11:07.129Z,99008.63
2023-04-20T14:13:34.006Z,99006.72
2023-04-20T14:16:00.824Z,99011.00
2023-04-20T14:18:27.660Z,99008.69
2023-04-20T14:20:55.419Z,99006.06
2023-04-20T14:23:22.221Z,99008.00
2023-04-20T14:25:48.925Z,99007.88
2023-04-20T14:28:16.986Z,99003.44
2023-04-20T14:30:45.629Z,98997.91
2023-04-20T14:33:13.468Z,99007.53
2023-04-20T14:35:40.653Z,98991.81
2023-04-20T14:38:07.380Z,98986.44
2023-04-20T14:40:34.216Z,98995.66
2023-04-20T14:43:01.037Z,98996.84
2023-04-20T14:45:28.175Z,99001.03
2023-04-20T14:47:56.241Z,99003.25
2023-04-20T14:50:25.456Z,99011.66
2023-04-20T14:52:53.268Z,99016.56
2023-04-20T14:55:24.081Z,99001.28
2023-04-20T14:57:54.922Z,99000.06
2023-04-20T15:00:24.047Z,98992.47
2023-04-20T15:02:52.125Z,98995.63
2023-04-20T15:05:19.465Z,98982.41
2023-04-20T15:07:46.344Z,98974.53
2023-04-20T15:10:13.117Z,98977.50
2023-04-20T15:12:39.961Z,98982.97
2023-04-20T15:15:07.475Z,98989.72
2023-04-20T15:17:34.176Z,98982.81
2023-04-20T15:20:01.012Z,98986.78
2023-04-20T15:22:27.896Z,98979.59
2023-04-20T15:24:55.186Z,98966.13
2023-04-20T15:27:22.190Z,98958.53
2023-04-20T15:29:48.914Z,98946.81
2023-04-20T15:32:15.786Z,98951.38
2023-04-20T15:34:42.964Z,98948.34
2023-04-20T15:37:09.678Z,98960.78
2023-04-20T15:39:36.694Z,98956.38
2023-04-20T15:42:03.501Z,98962.19
2023-04-20T15:44:30.180Z,98957.38
2023-04-20T15:46:58.378Z,98964.13
2023-04-20T15:49:25.403Z,98957.63
2023-04-20T15:51:52.087Z,98959.97
2023-04-20T15:54:23.919Z,98956.22
2023-04-20T15:56:51.369Z,98951.25
2023-04-20T15:59:20.207Z,98954.38
2023-04-20T16:01:47.494Z,98956.34
2023-04-20T16:04:14.678Z,98965.72
2023-04-20T16:06:41.704Z,98965.16
2023-04-20T16:09:08.528Z,98959.75
2023-04-20T16:11:35.724Z,98961.94
2023-04-20T16:14:02.535Z,98966.66
2023-04-20T16:16:29.661Z,98964.03
2023-04-20T16:18:56.582Z,98972.41
2023-04-20T16:21:23.808Z,98976.63
2023-04-20T16:23:54.922Z,98970.97
2023-04-20T16:26:22.018Z,98969.88
2023-04-20T16:28:49.047Z,98974.13
2023-04-20T16:31:16.064Z,98970.69
2023-04-20T16:33:43.528Z,98970.94
2023-04-20T16:36:10.693Z,98970.88
2023-04-20T16:38:37.539Z,98976.97
2023-04-20T16:41:04.772Z,98978.63
2023-04-20T16:43:31.774Z,98977.56
2023-04-20T16:45:59.051Z,98971.94
2023-04-20T16:48:25.935Z,98975.13
2023-04-20T16:50:52.999Z,98975.38
2023-04-20T16:53:19.840Z,98975.13
2023-04-20T16:55:46.560Z,98986.97
2023-04-20T16:58:14.120Z,98983.16
2023-04-20T17:00:41.493Z,98983.56
2023-04-20T17:03:10.965Z,98988.34
2023-04-20T17:05:41.619Z,98988.78
2023-04-20T17:08:08.931Z,98987.88
2023-04-20T17:10:37.592Z,99005.66
2023-04-20T17:13:04.806Z,99000.22
2023-04-20T17:15:31.895Z,99010.44
2023-04-20T17:17:59.502Z,99008.53
2023-04-20T17:20:26.441Z,99002.09
2023-04-20T17:22:53.224Z,99007.19
2023-04-20T17:25:20.361Z,99001.69
2023-04-20T17:27:47.438Z,99009.78
2023-04-20T17:30:14.411Z,99002.16
2023-04-20T17:32:41.406Z,98996.97
2023-04-20T17:35:08.643Z,99013.06
2023-04-20T17:37:37.079Z,98993.16
2023-04-20T17:40:05.481Z,98988.88
2023-04-20T17:42:32.621Z,98988.66
2023-04-20T17:44:59.290Z,98991.84
2023-04-20T17:47:26.183Z,98997.25
2023-04-20T17:49:53.088Z,98986.25
2023-04-20T17:52:22.534Z,98984.28
2023-04-20T17:54:49.360Z,98983.19
2023-04-20T17:57:16.244Z,98974.63
2023-04-20T17:59:42.993Z,98971.78
2023-04-20T18:02:10.586Z,98980.94
2023-04-20T18:04:37.862Z,98987.06
2023-04-20T18:07:05.580Z,98981.53
2023-04-20T18:09:32.672Z,98999.94
2023-04-20T18:11:59.396Z,98987.72
2023-04-20T18:14:26.148Z,98995.72
2023-04-20T18:16:55.200Z,98997.09
2023-04-20T18:19:22.128Z,98990.47
2023-04-20T18:21:49.015Z,99010.00
2023-04-20T18:24:16.116Z,99014.03
2023-04-20T18:26:43.029Z,99013.31
2023-04-20T18:29:09.863Z,99021.72
2023-04-20T18:31:36.807Z,99034.44
2023-04-20T18:34:04.074Z,99020.53
2023-04-20T18:36:31.553Z,99022.31
2023-04-20T18:38:58.339Z,99027.28
2023-04-20T18:41:25.974Z,99023.59
2023-04-20T18:43:53.689Z,99023.31
2023-04-20T18:46:20.595Z,99026.72
2023-04-20T18:48:47.505Z,99035.56
2023-04-20T18:51:14.415Z,99034.38
2023-04-20T18:53:41.119Z,99043.81
2023-04-20T18:56:09.763Z,99040.81
2023-04-20T18:58:37.151Z,99032.31
2023-04-20T19:01:04.689Z,99026.91
2023-04-20T19:03:32.474Z,99008.38
2023-04-20T19:05:59.668Z,99005.31
2023-04-20T19:08:26.517Z,99002.84
2023-04-20T19:10:56.736Z,99003.16
2023-04-20T19:13:24.219Z,98994.78
2023-04-20T19:15:51.197Z,98999.22
2023-04-20T19:18:18.005Z,98996.78
2023-04-20T19:20:44.891Z,98997.03
2023-04-20T19:23:12.026Z,99006.16
2023-04-20T19:25:38.885Z,99019.63
2023-04-20T19:28:08.463Z,99020.06
2023-04-20T19:30:36.202Z,99022.97
2023-04-20T19:33:05.440Z,99024.22
2023-04-20T19:35:32.555Z,99010.06
2023-04-20T19:37:59.821Z,99019.72
2023-04-20T19:40:27.528Z,99019.59
2023-04-20T19:42:54.216Z,99020.56
2023-04-20T19:45:21.183Z,99030.63
2023-04-20T19:47:48.018Z,99024.19
2023-04-20T19:50:15.087Z,99020.03
2023-04-20T19:52:42.170Z,99013.97
2023-04-20T19:55:09.636Z,99017.81
2023-04-20T19:57:36.430Z,99015.88
2023-04-20T20:00:05.001Z,99014.56
2023-04-20T20:02:32.126Z,99003.38
2023-04-20T20:04:58.929Z,99007.34
2023-04-20T20:07:26.747Z,99003.84
2023-04-20T20:09:53.625Z,99012.59
2023-04-20T20:12:20.404Z,99013.47
2023-04-20T20:14:47.490Z,99013.47
2023-04-20T20:17:14.257Z,99009.53
2023-04-20T20:19:43.550Z,99022.25
2023-04-20T20:22:10.562Z,99008.28
2023-04-20T20:24:37.858Z,99010.97
2023-04-20T20:27:05.103Z,99007.78
2023-04-20T20:29:31.897Z,99005.59
2023-04-20T20:31:58.590Z,99017.16
2023-04-20T20:34:25.781Z,99012.63
2023-04-20T20:36:53.524Z,99004.38
2023-04-20T20:39:20.516Z,98996.38
2023-04-20T20:41:47.923Z,98997.75
2023-04-20T20:44:15.301Z,98995.78
2023-04-20T20:46:42.507Z,98992.88
2023-04-20T20:49:09.540Z,98981.41
2023-04-20T20:51:36.591Z,98991.63
2023-04-20T20:54:03.741Z,98989.47
2023-04-20T20:56:30.464Z,98985.66
2023-04-20T20:58:57.320Z,98984.50
2023-04-20T21:01:24.113Z,98979.91
2023-04-20T21:03:51.014Z,98971.81
2023-04-20T21:06:18.378Z,98974.56
2023-04-20T21:08:45.085Z,98965.47
2023-04-20T21:11:11.804Z,98964.22
2023-04-20T21:13:38.603Z,98955.31
2023-04-20T21:16:05.740Z,98950.75
2023-04-20T21:18:33.186Z,98943.97
2023-04-20T21:20:59.883Z,98941.19
2023-04-20T21:23:26.736Z,98952.81
2023-04-20T21:25:53.383Z,98958.31
2023-04-20T21:28:20.134Z,98944.84
2023-04-20T21:30:46.920Z,98945.38
2023-04-20T21:33:13.915Z,98945.81
2023-04-20T21:35:40.703Z,98939.19
2023-04-20T21:38:07.545Z,98943.47
2023-04-20T21:40:34.498Z,98939.06
2023-04-20T21:43:01.330Z,98929.66
2023-04-20T21:45:28.221Z,98934.81
2023-04-20T21:47:55.763Z,98942.91
2023-04-20T21:50:27.266Z,98936.31
2023-04-20T21:52:54.834Z,98937.38
2023-04-20T21:55:21.741Z,98932.44
2023-04-20T21:57:48.583Z,98939.59
2023-04-20T22:00:16.085Z,98923.59
2023-04-20T22:02:43.083Z,98931.66
2023-04-20T22:05:11.082Z,98932.19
2023-04-20T22:07:38.977Z,98926.41
2023-04-20T22:10:07.342Z,98926.84
2023-04-20T22:12:39.616Z,98932.75
2023-04-20T22:15:11.213Z,98928.91
2023-04-20T22:17:38.263Z,98919.78
2023-04-20T22:20:07.931Z,98929.72
2023-04-20T22:22:35.556Z,98921.53
2023-04-20T22:25:03.367Z,98923.94
2023-04-20T22:27:30.374Z,98932.75
2023-04-20T22:29:57.285Z,98927.69
2023-04-20T22:32:24.210Z,98932.63
2023-04-20T22:34:51.210Z,98925.06
2023-04-20T22:37:17.979Z,98931.78
2023-04-20T22:39:45.029Z,98939.25
2023-04-20T22:42:12.045Z,98944.09
2023-04-20T22:44:38.787Z,98930.00
2023-04-20T22:47:06.023Z,98934.69
2023-04-20T22:49:32.991Z,98940.13
2023-04-20T22:51:59.759Z,98934.03
2023-04-20T22:54:26.610Z,98938.03
2023-04-20T22:56:53.742Z,98927.00
2023-04-20T22:59:20.820Z,98928.53
2023-04-20T23:01:47.758Z,98924.22
2023-04-20T23:04:14.634Z,98930.56
2023-04-20T23:06:44.027Z,98925.63
2023-04-20T23:09:13.491Z,98913.38
2023-04-20T23:11:40.487Z,98917.19
2023-04-20T23:14:08.176Z,98919.16
2023-04-20T23:16:35.604Z,98915.69
2023-04-20T23:19:02.356Z,98916.25
2023-04-20T23:21:29.180Z,98920.38
2023-04-20T23:23:59.562Z,98920.81
2023-04-20T23:26:26.299Z,98908.38
2023-04-20T23:28:53.795Z,98904.94
2023-04-20T23:31:21.452Z,98914.59
2023-04-20T23:33:48.344Z,98901.06
2023-04-20T23:36:15.273Z,98906.03
2023-04-20T23:38:42.469Z,98900.00
2023-04-20T23:41:10.836Z,98894.59
2023-04-20T23:43:39.088Z,98886.06
2023-04-20T23:46:06.752Z,98879.16
2023-04-20T23:48:34.059Z,98879.97
2023-04-20T23:51:02.011Z,98881.50
2023-04-20T23:53:28.965Z,98882.03
2023-04-20T23:55:55.888Z,98879.56
2023-04-20T23:58:26.692Z,98882.59
